sensor_id;sensor_type;location;lat;lon;timestamp;P1;durP1;ratioP1;P2;durP2;ratioP2
20910;SDS011;10615;42.702;23.314;2022-12-18T00:00:47;9.07;;;7.68;;
20910;SDS011;10615;42.702;23.314;2022-12-18T00:01:48;8.38;;;7.35;;
20910;SDS011;10615;42.702;23.314;2022-12-18T00:02:48;8.40;;;7.03;;
20910;SDS011;10615;42.702;23.314;2022-12-18T00:03:49;7.78;;;6.95;;
20910;SDS011;10615;42.702;23.314;2022-12-18T00:04:51;8.80;;;7.32;;
20910;SDS011;10615;42.702;23.314;2022-12-18T00:05:52;8.85;;;7.63;;
20910;SDS011;10615;42.702;23.314;2022-12-18T00:06:53;8.52;;;6.78;;
20910;SDS011;10615;42.702;23.314;2022-12-18T00:07:54;8.52;;;7.45;;
20910;SDS011;10615;42.702;23.314;2022-12-18T00:08:55;8.95;;;7.53;;
20910;SDS011;10615;42.702;23.314;2022-12-18T00:09:57;9.63;;;7.90;;
20910;SDS011;10615;42.702;23.314;2022-12-18T00:11:03;9.68;;;7.78;;
20910;SDS011;10615;42.702;23.314;2022-12-18T00:12:08;9.77;;;7.70;;
20910;SDS011;10615;42.702;23.314;2022-12-18T00:13:09;10.45;;;8.30;;
20910;SDS011;10615;42.702;23.314;2022-12-18T00:14:10;9.30;;;7.95;;
20910;SDS011;10615;42.702;23.314;2022-12-18T00:15:12;9.43;;;8.07;;
20910;SDS011;10615;42.702;23.314;2022-12-18T00:16:13;11.07;;;8.00;;
20910;SDS011;10615;42.702;23.314;2022-12-18T00:17:20;10.40;;;8.05;;
20910;SDS011;10615;42.702;23.314;2022-12-18T00:18:20;9.52;;;7.80;;
20910;SDS011;10615;42.702;23.314;2022-12-18T00:19:21;9.98;;;8.23;;
20910;SDS011;10615;42.702;23.314;2022-12-18T00:20:22;9.90;;;8.32;;
20910;SDS011;10615;42.702;23.314;2022-12-18T00:21:26;10.15;;;8.68;;
20910;SDS011;10615;42.702;23.314;2022-12-18T00:22:27;11.13;;;8.45;;
20910;SDS011;10615;42.702;23.314;2022-12-18T00:23:28;8.88;;;7.72;;
20910;SDS011;10615;42.702;23.314;2022-12-18T00:24:29;10.13;;;8.02;;
20910;SDS011;10615;42.702;23.314;2022-12-18T00:25:32;10.43;;;8.00;;
20910;SDS011;10615;42.702;23.314;2022-12-18T00:26:35;10.25;;;7.93;;
20910;SDS011;10615;42.702;23.314;2022-12-18T00:27:37;9.18;;;7.85;;
20910;SDS011;10615;42.702;23.314;2022-12-18T00:28:38;9.88;;;8.20;;
20910;SDS011;10615;42.702;23.314;2022-12-18T00:29:41;10.25;;;8.27;;
20910;SDS011;10615;42.702;23.314;2022-12-18T00:30:41;9.45;;;7.85;;
20910;SDS011;10615;42.702;23.314;2022-12-18T00:31:42;11.05;;;8.05;;
20910;SDS011;10615;42.702;23.314;2022-12-18T00:32:43;10.00;;;8.10;;
20910;SDS011;10615;42.702;23.314;2022-12-18T00:33:44;9.77;;;8.65;;
20910;SDS011;10615;42.702;23.314;2022-12-18T00:34:44;9.63;;;8.25;;
20910;SDS011;10615;42.702;23.314;2022-12-18T00:35:45;11.23;;;8.68;;
20910;SDS011;10615;42.702;23.314;2022-12-18T00:36:47;10.93;;;9.52;;
20910;SDS011;10615;42.702;23.314;2022-12-18T00:37:48;10.00;;;8.50;;
20910;SDS011;10615;42.702;23.314;2022-12-18T00:38:49;10.07;;;8.15;;
20910;SDS011;10615;42.702;23.314;2022-12-18T00:39:49;9.90;;;8.38;;
20910;SDS011;10615;42.702;23.314;2022-12-18T00:40:50;11.48;;;8.60;;
20910;SDS011;10615;42.702;23.314;2022-12-18T00:41:51;9.23;;;8.07;;
20910;SDS011;10615;42.702;23.314;2022-12-18T00:43:10;10.35;;;8.50;;
20910;SDS011;10615;42.702;23.314;2022-12-18T00:44:12;11.32;;;8.57;;
20910;SDS011;10615;42.702;23.314;2022-12-18T00:45:14;9.02;;;7.60;;
20910;SDS011;10615;42.702;23.314;2022-12-18T00:46:15;8.60;;;7.50;;
20910;SDS011;10615;42.702;23.314;2022-12-18T00:47:15;8.85;;;7.55;;
20910;SDS011;10615;42.702;23.314;2022-12-18T00:48:16;9.77;;;8.05;;
20910;SDS011;10615;42.702;23.314;2022-12-18T00:49:17;10.63;;;8.25;;
20910;SDS011;10615;42.702;23.314;2022-12-18T00:50:19;10.48;;;8.00;;
20910;SDS011;10615;42.702;23.314;2022-12-18T00:51:20;9.98;;;7.88;;
20910;SDS011;10615;42.702;23.314;2022-12-18T00:52:21;10.02;;;7.90;;
20910;SDS011;10615;42.702;23.314;2022-12-18T00:53:21;9.90;;;7.82;;
20910;SDS011;10615;42.702;23.314;2022-12-18T00:54:22;9.85;;;8.20;;
20910;SDS011;10615;42.702;23.314;2022-12-18T00:55:23;9.60;;;7.88;;
20910;SDS011;10615;42.702;23.314;2022-12-18T00:56:24;8.57;;;7.22;;
20910;SDS011;10615;42.702;23.314;2022-12-18T00:57:24;9.52;;;7.68;;
20910;SDS011;10615;42.702;23.314;2022-12-18T00:58:25;10.38;;;8.18;;
20910;SDS011;10615;42.702;23.314;2022-12-18T00:59:25;9.30;;;7.75;;
20910;SDS011;10615;42.702;23.314;2022-12-18T01:00:26;10.13;;;8.13;;
20910;SDS011;10615;42.702;23.314;2022-12-18T01:01:27;9.52;;;7.82;;
20910;SDS011;10615;42.702;23.314;2022-12-18T01:02:27;10.98;;;8.82;;
20910;SDS011;10615;42.702;23.314;2022-12-18T01:03:28;8.90;;;7.45;;
20910;SDS011;10615;42.702;23.314;2022-12-18T01:04:30;9.95;;;7.88;;
20910;SDS011;10615;42.702;23.314;2022-12-18T01:05:32;11.05;;;8.60;;
20910;SDS011;10615;42.702;23.314;2022-12-18T01:06:33;10.57;;;8.02;;
20910;SDS011;10615;42.702;23.314;2022-12-18T01:07:34;10.45;;;8.68;;
20910;SDS011;10615;42.702;23.314;2022-12-18T01:08:34;9.82;;;8.07;;
20910;SDS011;10615;42.702;23.314;2022-12-18T01:09:35;10.18;;;8.65;;
20910;SDS011;10615;42.702;23.314;2022-12-18T01:10:36;10.10;;;9.00;;
20910;SDS011;10615;42.702;23.314;2022-12-18T01:11:41;10.55;;;8.57;;
20910;SDS011;10615;42.702;23.314;2022-12-18T01:12:42;11.32;;;8.80;;
20910;SDS011;10615;42.702;23.314;2022-12-18T01:13:43;11.27;;;9.05;;
20910;SDS011;10615;42.702;23.314;2022-12-18T01:14:44;11.55;;;9.40;;
20910;SDS011;10615;42.702;23.314;2022-12-18T01:15:48;11.13;;;8.52;;
20910;SDS011;10615;42.702;23.314;2022-12-18T01:16:49;10.50;;;8.70;;
20910;SDS011;10615;42.702;23.314;2022-12-18T01:17:51;11.40;;;9.25;;
20910;SDS011;10615;42.702;23.314;2022-12-18T01:18:53;11.65;;;9.15;;
20910;SDS011;10615;42.702;23.314;2022-12-18T01:19:54;11.02;;;9.13;;
20910;SDS011;10615;42.702;23.314;2022-12-18T01:20:55;11.18;;;9.38;;
20910;SDS011;10615;42.702;23.314;2022-12-18T01:21:55;10.98;;;8.82;;
20910;SDS011;10615;42.702;23.314;2022-12-18T01:22:56;11.23;;;8.88;;
20910;SDS011;10615;42.702;23.314;2022-12-18T01:23:57;10.88;;;9.32;;
20910;SDS011;10615;42.702;23.314;2022-12-18T01:24:58;12.00;;;9.55;;
20910;SDS011;10615;42.702;23.314;2022-12-18T01:26:03;10.63;;;9.52;;
20910;SDS011;10615;42.702;23.314;2022-12-18T01:27:07;11.88;;;9.68;;
20910;SDS011;10615;42.702;23.314;2022-12-18T01:28:08;11.98;;;9.57;;
20910;SDS011;10615;42.702;23.314;2022-12-18T01:29:09;11.23;;;9.20;;
20910;SDS011;10615;42.702;23.314;2022-12-18T01:30:10;12.23;;;9.82;;
20910;SDS011;10615;42.702;23.314;2022-12-18T01:31:21;11.80;;;9.45;;
20910;SDS011;10615;42.702;23.314;2022-12-18T01:32:24;11.73;;;9.82;;
20910;SDS011;10615;42.702;23.314;2022-12-18T01:33:24;12.13;;;9.77;;
20910;SDS011;10615;42.702;23.314;2022-12-18T01:34:25;11.73;;;9.50;;
20910;SDS011;10615;42.702;23.314;2022-12-18T01:35:26;13.23;;;10.35;;
20910;SDS011;10615;42.702;23.314;2022-12-18T01:36:27;12.63;;;9.88;;
20910;SDS011;10615;42.702;23.314;2022-12-18T01:37:33;10.95;;;9.60;;
20910;SDS011;10615;42.702;23.314;2022-12-18T01:38:33;12.15;;;9.50;;
20910;SDS011;10615;42.702;23.314;2022-12-18T01:39:34;12.35;;;10.25;;
20910;SDS011;10615;42.702;23.314;2022-12-18T01:40:35;12.32;;;9.98;;
20910;SDS011;10615;42.702;23.314;2022-12-18T01:41:36;13.07;;;9.52;;
20910;SDS011;10615;42.702;23.314;2022-12-18T01:42:56;11.98;;;9.82;;
20910;SDS011;10615;42.702;23.314;2022-12-18T01:43:57;12.20;;;9.93;;
20910;SDS011;10615;42.702;23.314;2022-12-18T01:46:01;12.20;;;9.77;;
20910;SDS011;10615;42.702;23.314;2022-12-18T01:47:03;13.68;;;9.65;;
20910;SDS011;10615;42.702;23.314;2022-12-18T01:48:05;12.90;;;10.00;;
20910;SDS011;10615;42.702;23.314;2022-12-18T01:49:08;13.18;;;10.15;;
20910;SDS011;10615;42.702;23.314;2022-12-18T01:51:17;10.73;;;9.15;;
20910;SDS011;10615;42.702;23.314;2022-12-18T01:52:19;11.73;;;9.63;;
20910;SDS011;10615;42.702;23.314;2022-12-18T01:53:21;12.25;;;10.10;;
20910;SDS011;10615;42.702;23.314;2022-12-18T01:54:23;13.10;;;10.15;;
20910;SDS011;10615;42.702;23.314;2022-12-18T01:55:25;13.32;;;10.05;;
20910;SDS011;10615;42.702;23.314;2022-12-18T01:56:28;11.55;;;9.20;;
20910;SDS011;10615;42.702;23.314;2022-12-18T01:57:29;11.73;;;8.70;;
20910;SDS011;10615;42.702;23.314;2022-12-18T01:59:53;12.73;;;9.30;;
20910;SDS011;10615;42.702;23.314;2022-12-18T02:00:56;12.07;;;9.35;;
20910;SDS011;10615;42.702;23.314;2022-12-18T02:01:57;12.45;;;9.52;;
20910;SDS011;10615;42.702;23.314;2022-12-18T02:02:58;12.93;;;9.25;;
20910;SDS011;10615;42.702;23.314;2022-12-18T02:05:26;11.25;;;9.25;;
20910;SDS011;10615;42.702;23.314;2022-12-18T02:06:47;15.25;;;10.52;;
20910;SDS011;10615;42.702;23.314;2022-12-18T02:08:14;11.50;;;9.05;;
20910;SDS011;10615;42.702;23.314;2022-12-18T02:09:19;12.18;;;9.07;;
20910;SDS011;10615;42.702;23.314;2022-12-18T02:11:54;11.93;;;9.00;;
20910;SDS011;10615;42.702;23.314;2022-12-18T02:13:13;9.75;;;7.97;;
20910;SDS011;10615;42.702;23.314;2022-12-18T02:14:32;10.52;;;8.60;;
20910;SDS011;10615;42.702;23.314;2022-12-18T02:17:13;10.82;;;8.32;;
20910;SDS011;10615;42.702;23.314;2022-12-18T02:18:20;10.27;;;8.77;;
20910;SDS011;10615;42.702;23.314;2022-12-18T02:27:07;11.77;;;7.72;;
20910;SDS011;10615;42.702;23.314;2022-12-18T02:28:11;11.77;;;8.98;;
20910;SDS011;10615;42.702;23.314;2022-12-18T02:29:16;10.55;;;7.82;;
20910;SDS011;10615;42.702;23.314;2022-12-18T02:30:23;10.57;;;8.15;;
20910;SDS011;10615;42.702;23.314;2022-12-18T02:31:26;11.57;;;8.50;;
20910;SDS011;10615;42.702;23.314;2022-12-18T02:32:43;9.55;;;7.93;;
20910;SDS011;10615;42.702;23.314;2022-12-18T02:33:47;10.63;;;8.43;;
20910;SDS011;10615;42.702;23.314;2022-12-18T02:34:51;10.77;;;8.45;;
20910;SDS011;10615;42.702;23.314;2022-12-18T02:35:55;11.68;;;8.15;;
20910;SDS011;10615;42.702;23.314;2022-12-18T02:36:58;10.02;;;7.75;;
20910;SDS011;10615;42.702;23.314;2022-12-18T02:38:03;12.07;;;8.27;;
20910;SDS011;10615;42.702;23.314;2022-12-18T02:39:04;12.35;;;9.10;;
20910;SDS011;10615;42.702;23.314;2022-12-18T02:40:07;10.68;;;8.70;;
20910;SDS011;10615;42.702;23.314;2022-12-18T02:41:09;11.32;;;8.20;;
20910;SDS011;10615;42.702;23.314;2022-12-18T02:42:11;10.23;;;8.40;;
20910;SDS011;10615;42.702;23.314;2022-12-18T02:43:13;9.32;;;7.80;;
20910;SDS011;10615;42.702;23.314;2022-12-18T02:44:15;10.35;;;8.35;;
20910;SDS011;10615;42.702;23.314;2022-12-18T02:45:15;10.82;;;7.70;;
20910;SDS011;10615;42.702;23.314;2022-12-18T02:46:27;8.80;;;7.85;;
20910;SDS011;10615;42.702;23.314;2022-12-18T02:47:34;10.75;;;8.52;;
20910;SDS011;10615;42.702;23.314;2022-12-18T02:48:38;10.10;;;8.00;;
20910;SDS011;10615;42.702;23.314;2022-12-18T02:50:41;13.23;;;7.95;;
20910;SDS011;10615;42.702;23.314;2022-12-18T02:51:53;11.13;;;7.82;;
20910;SDS011;10615;42.702;23.314;2022-12-18T02:54:09;11.25;;;8.93;;
20910;SDS011;10615;42.702;23.314;2022-12-18T02:56:23;11.77;;;8.50;;
20910;SDS011;10615;42.702;23.314;2022-12-18T02:58:47;11.10;;;8.27;;
20910;SDS011;10615;42.702;23.314;2022-12-18T02:59:58;10.07;;;7.72;;
20910;SDS011;10615;42.702;23.314;2022-12-18T03:02:22;9.98;;;8.35;;
20910;SDS011;10615;42.702;23.314;2022-12-18T03:04:41;11.07;;;8.50;;
20910;SDS011;10615;42.702;23.314;2022-12-18T03:05:53;10.70;;;8.05;;
20910;SDS011;10615;42.702;23.314;2022-12-18T03:07:11;11.10;;;8.88;;
20910;SDS011;10615;42.702;23.314;2022-12-18T03:08:21;10.73;;;8.60;;
20910;SDS011;10615;42.702;23.314;2022-12-18T03:09:35;12.55;;;9.63;;
20910;SDS011;10615;42.702;23.314;2022-12-18T03:10:42;10.20;;;9.00;;
20910;SDS011;10615;42.702;23.314;2022-12-18T03:11:54;13.93;;;9.68;;
20910;SDS011;10615;42.702;23.314;2022-12-18T03:13:23;12.88;;;8.50;;
20910;SDS011;10615;42.702;23.314;2022-12-18T03:14:31;9.95;;;8.10;;
20910;SDS011;10615;42.702;23.314;2022-12-18T03:15:41;10.93;;;8.82;;
20910;SDS011;10615;42.702;23.314;2022-12-18T03:16:45;11.07;;;8.57;;
20910;SDS011;10615;42.702;23.314;2022-12-18T03:18:11;11.77;;;8.35;;
20910;SDS011;10615;42.702;23.314;2022-12-18T03:19:22;11.93;;;8.57;;
20910;SDS011;10615;42.702;23.314;2022-12-18T03:20:27;11.77;;;9.10;;
20910;SDS011;10615;42.702;23.314;2022-12-18T03:21:40;11.35;;;9.07;;
20910;SDS011;10615;42.702;23.314;2022-12-18T03:22:46;11.48;;;8.77;;
20910;SDS011;10615;42.702;23.314;2022-12-18T03:23:52;10.20;;;8.68;;
20910;SDS011;10615;42.702;23.314;2022-12-18T03:24:54;13.30;;;9.30;;
20910;SDS011;10615;42.702;23.314;2022-12-18T03:25:57;9.93;;;8.43;;
20910;SDS011;10615;42.702;23.314;2022-12-18T03:27:01;10.77;;;8.70;;
20910;SDS011;10615;42.702;23.314;2022-12-18T03:28:06;9.77;;;8.23;;
20910;SDS011;10615;42.702;23.314;2022-12-18T03:29:17;11.45;;;8.60;;
20910;SDS011;10615;42.702;23.314;2022-12-18T03:30:26;9.65;;;7.63;;
20910;SDS011;10615;42.702;23.314;2022-12-18T03:31:29;9.10;;;7.70;;
20910;SDS011;10615;42.702;23.314;2022-12-18T03:33:52;11.23;;;8.55;;
20910;SDS011;10615;42.702;23.314;2022-12-18T03:34:55;11.65;;;8.85;;
20910;SDS011;10615;42.702;23.314;2022-12-18T03:36:00;10.60;;;8.43;;
20910;SDS011;10615;42.702;23.314;2022-12-18T03:37:04;11.57;;;8.93;;
20910;SDS011;10615;42.702;23.314;2022-12-18T03:38:06;11.02;;;8.90;;
20910;SDS011;10615;42.702;23.314;2022-12-18T03:39:07;11.70;;;8.75;;
20910;SDS011;10615;42.702;23.314;2022-12-18T03:40:07;11.98;;;8.75;;
20910;SDS011;10615;42.702;23.314;2022-12-18T03:41:16;10.63;;;8.60;;
20910;SDS011;10615;42.702;23.314;2022-12-18T03:42:36;9.90;;;8.23;;
20910;SDS011;10615;42.702;23.314;2022-12-18T03:43:55;10.90;;;8.43;;
20910;SDS011;10615;42.702;23.314;2022-12-18T03:48:51;10.02;;;8.13;;
20910;SDS011;10615;42.702;23.314;2022-12-18T03:50:21;11.25;;;8.82;;
20910;SDS011;10615;42.702;23.314;2022-12-18T03:52:43;12.55;;;8.20;;
20910;SDS011;10615;42.702;23.314;2022-12-18T03:54:55;13.02;;;9.40;;
20910;SDS011;10615;42.702;23.314;2022-12-18T03:55:58;10.82;;;8.63;;
20910;SDS011;10615;42.702;23.314;2022-12-18T03:57:09;10.90;;;8.65;;
20910;SDS011;10615;42.702;23.314;2022-12-18T03:58:13;10.73;;;8.73;;
20910;SDS011;10615;42.702;23.314;2022-12-18T03:59:18;12.20;;;9.27;;
20910;SDS011;10615;42.702;23.314;2022-12-18T04:00:20;11.75;;;8.95;;
20910;SDS011;10615;42.702;23.314;2022-12-18T04:01:22;12.98;;;9.48;;
20910;SDS011;10615;42.702;23.314;2022-12-18T04:02:29;13.00;;;9.25;;
20910;SDS011;10615;42.702;23.314;2022-12-18T04:03:32;11.60;;;9.02;;
20910;SDS011;10615;42.702;23.314;2022-12-18T04:04:35;11.10;;;9.18;;
20910;SDS011;10615;42.702;23.314;2022-12-18T04:05:38;12.00;;;9.43;;
20910;SDS011;10615;42.702;23.314;2022-12-18T04:06:41;12.10;;;9.55;;
20910;SDS011;10615;42.702;23.314;2022-12-18T04:07:43;12.27;;;9.40;;
20910;SDS011;10615;42.702;23.314;2022-12-18T04:08:46;12.98;;;9.13;;
20910;SDS011;10615;42.702;23.314;2022-12-18T04:09:48;12.65;;;9.90;;
20910;SDS011;10615;42.702;23.314;2022-12-18T04:10:50;11.57;;;9.15;;
20910;SDS011;10615;42.702;23.314;2022-12-18T04:11:51;11.52;;;9.25;;
20910;SDS011;10615;42.702;23.314;2022-12-18T04:12:55;13.20;;;9.57;;
20910;SDS011;10615;42.702;23.314;2022-12-18T04:13:56;13.07;;;10.57;;
20910;SDS011;10615;42.702;23.314;2022-12-18T04:14:58;12.95;;;9.50;;
20910;SDS011;10615;42.702;23.314;2022-12-18T04:15:58;12.05;;;9.85;;
20910;SDS011;10615;42.702;23.314;2022-12-18T04:16:59;13.18;;;9.95;;
20910;SDS011;10615;42.702;23.314;2022-12-18T04:18:00;13.40;;;10.18;;
20910;SDS011;10615;42.702;23.314;2022-12-18T04:19:00;13.40;;;10.10;;
20910;SDS011;10615;42.702;23.314;2022-12-18T04:20:01;11.82;;;10.00;;
20910;SDS011;10615;42.702;23.314;2022-12-18T04:21:02;16.17;;;10.85;;
20910;SDS011;10615;42.702;23.314;2022-12-18T04:22:03;14.07;;;10.32;;
20910;SDS011;10615;42.702;23.314;2022-12-18T04:23:03;13.13;;;10.02;;
20910;SDS011;10615;42.702;23.314;2022-12-18T04:24:04;15.52;;;10.77;;
20910;SDS011;10615;42.702;23.314;2022-12-18T04:25:05;14.63;;;10.95;;
20910;SDS011;10615;42.702;23.314;2022-12-18T04:26:06;16.95;;;11.40;;
20910;SDS011;10615;42.702;23.314;2022-12-18T04:27:06;13.85;;;10.20;;
20910;SDS011;10615;42.702;23.314;2022-12-18T04:28:07;14.15;;;10.30;;
20910;SDS011;10615;42.702;23.314;2022-12-18T04:29:08;14.23;;;10.57;;
20910;SDS011;10615;42.702;23.314;2022-12-18T04:30:08;13.50;;;10.32;;
20910;SDS011;10615;42.702;23.314;2022-12-18T04:31:09;14.10;;;10.80;;
20910;SDS011;10615;42.702;23.314;2022-12-18T04:32:10;13.57;;;10.63;;
20910;SDS011;10615;42.702;23.314;2022-12-18T04:33:11;14.52;;;11.10;;
20910;SDS011;10615;42.702;23.314;2022-12-18T04:34:12;14.57;;;11.35;;
20910;SDS011;10615;42.702;23.314;2022-12-18T04:35:13;15.05;;;10.80;;
20910;SDS011;10615;42.702;23.314;2022-12-18T04:36:14;13.77;;;10.95;;
20910;SDS011;10615;42.702;23.314;2022-12-18T04:37:14;16.33;;;11.40;;
20910;SDS011;10615;42.702;23.314;2022-12-18T04:38:15;18.45;;;12.02;;
20910;SDS011;10615;42.702;23.314;2022-12-18T04:39:18;15.73;;;11.75;;
20910;SDS011;10615;42.702;23.314;2022-12-18T04:40:19;14.15;;;11.75;;
20910;SDS011;10615;42.702;23.314;2022-12-18T04:41:20;15.77;;;11.55;;
20910;SDS011;10615;42.702;23.314;2022-12-18T04:42:20;17.17;;;12.48;;
20910;SDS011;10615;42.702;23.314;2022-12-18T04:43:21;17.65;;;12.00;;
20910;SDS011;10615;42.702;23.314;2022-12-18T04:44:22;18.20;;;12.73;;
20910;SDS011;10615;42.702;23.314;2022-12-18T04:45:22;16.00;;;11.98;;
20910;SDS011;10615;42.702;23.314;2022-12-18T04:46:23;15.15;;;11.70;;
20910;SDS011;10615;42.702;23.314;2022-12-18T04:47:23;18.58;;;12.55;;
20910;SDS011;10615;42.702;23.314;2022-12-18T04:48:24;16.33;;;11.93;;
20910;SDS011;10615;42.702;23.314;2022-12-18T04:49:25;16.50;;;12.15;;
20910;SDS011;10615;42.702;23.314;2022-12-18T04:50:25;16.83;;;13.18;;
20910;SDS011;10615;42.702;23.314;2022-12-18T04:51:26;17.88;;;12.98;;
20910;SDS011;10615;42.702;23.314;2022-12-18T04:52:27;17.88;;;12.30;;
20910;SDS011;10615;42.702;23.314;2022-12-18T04:53:28;16.77;;;12.75;;
20910;SDS011;10615;42.702;23.314;2022-12-18T04:54:28;18.92;;;14.35;;
20910;SDS011;10615;42.702;23.314;2022-12-18T04:55:29;16.02;;;12.77;;
20910;SDS011;10615;42.702;23.314;2022-12-18T04:56:30;19.80;;;14.05;;
20910;SDS011;10615;42.702;23.314;2022-12-18T04:57:31;18.75;;;12.63;;
20910;SDS011;10615;42.702;23.314;2022-12-18T04:58:32;16.58;;;12.40;;
20910;SDS011;10615;42.702;23.314;2022-12-18T04:59:33;18.63;;;14.10;;
20910;SDS011;10615;42.702;23.314;2022-12-18T05:00:33;18.63;;;13.90;;
20910;SDS011;10615;42.702;23.314;2022-12-18T05:01:34;17.13;;;13.63;;
20910;SDS011;10615;42.702;23.314;2022-12-18T05:02:35;19.02;;;14.30;;
20910;SDS011;10615;42.702;23.314;2022-12-18T05:03:36;20.70;;;14.52;;
20910;SDS011;10615;42.702;23.314;2022-12-18T05:04:37;20.90;;;13.88;;
20910;SDS011;10615;42.702;23.314;2022-12-18T05:05:37;17.50;;;13.50;;
20910;SDS011;10615;42.702;23.314;2022-12-18T05:06:38;17.48;;;13.63;;
20910;SDS011;10615;42.702;23.314;2022-12-18T05:07:39;18.20;;;13.93;;
20910;SDS011;10615;42.702;23.314;2022-12-18T05:08:39;19.00;;;14.13;;
20910;SDS011;10615;42.702;23.314;2022-12-18T05:09:40;18.27;;;13.27;;
20910;SDS011;10615;42.702;23.314;2022-12-18T05:10:41;17.75;;;13.60;;
20910;SDS011;10615;42.702;23.314;2022-12-18T05:11:41;17.23;;;13.27;;
20910;SDS011;10615;42.702;23.314;2022-12-18T05:12:42;19.65;;;14.02;;
20910;SDS011;10615;42.702;23.314;2022-12-18T05:13:57;19.90;;;14.48;;
20910;SDS011;10615;42.702;23.314;2022-12-18T05:14:58;19.63;;;13.55;;
20910;SDS011;10615;42.702;23.314;2022-12-18T05:15:59;18.65;;;13.90;;
20910;SDS011;10615;42.702;23.314;2022-12-18T05:17:00;20.15;;;14.85;;
20910;SDS011;10615;42.702;23.314;2022-12-18T05:18:01;20.27;;;15.10;;
20910;SDS011;10615;42.702;23.314;2022-12-18T05:19:02;18.42;;;14.25;;
20910;SDS011;10615;42.702;23.314;2022-12-18T05:20:03;17.70;;;13.85;;
20910;SDS011;10615;42.702;23.314;2022-12-18T05:21:04;19.40;;;13.60;;
20910;SDS011;10615;42.702;23.314;2022-12-18T05:22:08;18.25;;;14.68;;
20910;SDS011;10615;42.702;23.314;2022-12-18T05:23:28;20.13;;;14.73;;
20910;SDS011;10615;42.702;23.314;2022-12-18T05:24:28;19.98;;;15.30;;
20910;SDS011;10615;42.702;23.314;2022-12-18T05:25:29;20.33;;;15.05;;
20910;SDS011;10615;42.702;23.314;2022-12-18T05:26:30;23.00;;;15.20;;
20910;SDS011;10615;42.702;23.314;2022-12-18T05:27:30;18.73;;;13.95;;
20910;SDS011;10615;42.702;23.314;2022-12-18T05:28:32;18.88;;;14.65;;
20910;SDS011;10615;42.702;23.314;2022-12-18T05:29:34;19.77;;;15.05;;
20910;SDS011;10615;42.702;23.314;2022-12-18T05:30:34;19.52;;;15.27;;
20910;SDS011;10615;42.702;23.314;2022-12-18T05:31:35;19.27;;;14.85;;
20910;SDS011;10615;42.702;23.314;2022-12-18T05:32:36;20.50;;;15.07;;
20910;SDS011;10615;42.702;23.314;2022-12-18T05:33:37;20.25;;;15.43;;
20910;SDS011;10615;42.702;23.314;2022-12-18T05:34:37;19.30;;;14.68;;
20910;SDS011;10615;42.702;23.314;2022-12-18T05:35:38;19.00;;;14.50;;
20910;SDS011;10615;42.702;23.314;2022-12-18T05:36:39;20.13;;;14.80;;
20910;SDS011;10615;42.702;23.314;2022-12-18T05:37:39;19.23;;;14.30;;
20910;SDS011;10615;42.702;23.314;2022-12-18T05:38:40;19.40;;;14.65;;
20910;SDS011;10615;42.702;23.314;2022-12-18T05:39:41;21.00;;;14.07;;
20910;SDS011;10615;42.702;23.314;2022-12-18T05:40:43;22.30;;;14.80;;
20910;SDS011;10615;42.702;23.314;2022-12-18T05:41:43;20.30;;;14.20;;
20910;SDS011;10615;42.702;23.314;2022-12-18T05:42:44;20.45;;;15.07;;
20910;SDS011;10615;42.702;23.314;2022-12-18T05:43:45;20.40;;;15.18;;
20910;SDS011;10615;42.702;23.314;2022-12-18T05:44:45;21.35;;;15.45;;
20910;SDS011;10615;42.702;23.314;2022-12-18T05:45:46;21.00;;;15.60;;
20910;SDS011;10615;42.702;23.314;2022-12-18T05:46:47;18.85;;;15.10;;
20910;SDS011;10615;42.702;23.314;2022-12-18T05:47:47;20.50;;;15.32;;
20910;SDS011;10615;42.702;23.314;2022-12-18T05:48:48;21.17;;;15.50;;
20910;SDS011;10615;42.702;23.314;2022-12-18T05:49:50;20.75;;;15.55;;
20910;SDS011;10615;42.702;23.314;2022-12-18T05:50:50;20.00;;;14.77;;
20910;SDS011;10615;42.702;23.314;2022-12-18T05:51:51;21.73;;;15.35;;
20910;SDS011;10615;42.702;23.314;2022-12-18T05:52:52;17.75;;;13.52;;
20910;SDS011;10615;42.702;23.314;2022-12-18T05:53:52;19.27;;;14.68;;
20910;SDS011;10615;42.702;23.314;2022-12-18T05:54:53;20.65;;;15.38;;
20910;SDS011;10615;42.702;23.314;2022-12-18T05:55:54;17.98;;;13.73;;
20910;SDS011;10615;42.702;23.314;2022-12-18T05:56:59;21.92;;;15.48;;
20910;SDS011;10615;42.702;23.314;2022-12-18T05:58:00;21.02;;;15.52;;
20910;SDS011;10615;42.702;23.314;2022-12-18T05:59:01;19.90;;;15.27;;
20910;SDS011;10615;42.702;23.314;2022-12-18T06:00:02;22.58;;;16.55;;
20910;SDS011;10615;42.702;23.314;2022-12-18T06:01:11;22.77;;;16.65;;
20910;SDS011;10615;42.702;23.314;2022-12-18T06:02:14;23.60;;;16.35;;
20910;SDS011;10615;42.702;23.314;2022-12-18T06:03:14;22.48;;;16.25;;
20910;SDS011;10615;42.702;23.314;2022-12-18T06:04:15;22.60;;;16.38;;
20910;SDS011;10615;42.702;23.314;2022-12-18T06:05:16;20.85;;;15.77;;
20910;SDS011;10615;42.702;23.314;2022-12-18T06:06:18;20.10;;;15.18;;
20910;SDS011;10615;42.702;23.314;2022-12-18T06:07:20;21.25;;;15.35;;
20910;SDS011;10615;42.702;23.314;2022-12-18T06:08:21;20.67;;;15.10;;
20910;SDS011;10615;42.702;23.314;2022-12-18T06:09:21;21.40;;;15.50;;
20910;SDS011;10615;42.702;23.314;2022-12-18T06:10:22;22.77;;;16.73;;
20910;SDS011;10615;42.702;23.314;2022-12-18T06:11:24;25.92;;;17.48;;
20910;SDS011;10615;42.702;23.314;2022-12-18T06:12:26;22.75;;;15.48;;
20910;SDS011;10615;42.702;23.314;2022-12-18T06:13:27;21.70;;;15.80;;
20910;SDS011;10615;42.702;23.314;2022-12-18T06:14:27;22.90;;;16.08;;
20910;SDS011;10615;42.702;23.314;2022-12-18T06:15:28;24.00;;;15.55;;
20910;SDS011;10615;42.702;23.314;2022-12-18T06:16:29;20.67;;;15.80;;
20910;SDS011;10615;42.702;23.314;2022-12-18T06:17:31;21.27;;;16.05;;
20910;SDS011;10615;42.702;23.314;2022-12-18T06:18:32;22.23;;;15.27;;
20910;SDS011;10615;42.702;23.314;2022-12-18T06:19:34;21.83;;;16.20;;
20910;SDS011;10615;42.702;23.314;2022-12-18T06:20:35;19.23;;;14.98;;
20910;SDS011;10615;42.702;23.314;2022-12-18T06:21:36;21.50;;;14.98;;
20910;SDS011;10615;42.702;23.314;2022-12-18T06:22:37;21.52;;;15.75;;
20910;SDS011;10615;42.702;23.314;2022-12-18T06:23:38;22.17;;;16.08;;
20910;SDS011;10615;42.702;23.314;2022-12-18T06:24:38;22.05;;;15.68;;
20910;SDS011;10615;42.702;23.314;2022-12-18T06:25:39;20.80;;;15.32;;
20910;SDS011;10615;42.702;23.314;2022-12-18T06:26:40;19.65;;;14.80;;
20910;SDS011;10615;42.702;23.314;2022-12-18T06:27:41;19.88;;;14.88;;
20910;SDS011;10615;42.702;23.314;2022-12-18T06:28:42;20.00;;;14.95;;
20910;SDS011;10615;42.702;23.314;2022-12-18T06:29:42;19.20;;;14.23;;
20910;SDS011;10615;42.702;23.314;2022-12-18T06:30:43;20.70;;;15.63;;
20910;SDS011;10615;42.702;23.314;2022-12-18T06:31:45;21.77;;;15.65;;
20910;SDS011;10615;42.702;23.314;2022-12-18T06:32:45;20.65;;;15.02;;
20910;SDS011;10615;42.702;23.314;2022-12-18T06:33:47;21.00;;;15.13;;
20910;SDS011;10615;42.702;23.314;2022-12-18T06:34:48;20.38;;;14.60;;
20910;SDS011;10615;42.702;23.314;2022-12-18T06:35:49;20.90;;;15.27;;
20910;SDS011;10615;42.702;23.314;2022-12-18T06:36:50;20.33;;;14.98;;
20910;SDS011;10615;42.702;23.314;2022-12-18T06:37:50;19.42;;;14.00;;